createdAt,value
2019-03-02T00:02:24.247Z,48.83
2019-03-02T00:04:53.336Z,53.27
2019-03-02T00:07:21.609Z,54.17
2019-03-02T00:09:49.864Z,52.47
2019-03-02T00:12:18.128Z,53.60
2019-03-02T00:14:46.408Z,55.43
2019-03-02T00:17:15.495Z,56.23
2019-03-02T00:19:44.659Z,58.13
2019-03-02T00:22:12.918Z,54.93
2019-03-02T00:24:42.270Z,61.93
2019-03-02T00:27:10.635Z,62.30
2019-03-02T00:29:38.925Z,66.63
2019-03-02T00:32:09.581Z,64.20
2019-03-02T00:34:37.186Z,68.70
2019-03-02T00:37:05.446Z,72.20
2019-03-02T00:39:33.733Z,74.70
2019-03-02T00:42:02.018Z,76.17
2019-03-02T00:44:30.279Z,77.70
2019-03-02T00:46:59.647Z,75.00
2019-03-02T00:49:28.685Z,76.77
2019-03-02T00:51:56.947Z,77.97
2019-03-02T00:54:25.207Z,80.97
2019-03-02T00:56:53.472Z,87.37
2019-03-02T00:59:21.753Z,88.53
2019-03-02T01:01:50.018Z,94.53
2019-03-02T01:04:18.307Z,98.80
2019-03-02T01:06:48.770Z,90.47
2019-03-02T01:09:16.575Z,87.20
2019-03-02T01:11:44.839Z,89.80
2019-03-02T01:14:13.097Z,85.83
2019-03-02T01:16:41.358Z,84.43
2019-03-02T01:19:09.623Z,90.33
2019-03-02T01:21:41.282Z,89.40
2019-03-02T01:24:07.890Z,84.27
2019-03-02T01:26:36.149Z,86.53
2019-03-02T01:29:04.547Z,85.13
2019-03-02T01:31:32.805Z,80.60
2019-03-02T01:34:04.792Z,88.30
2019-03-02T01:36:32.235Z,86.17
2019-03-02T01:39:01.037Z,88.63
2019-03-02T01:41:29.301Z,84.77
2019-03-02T01:43:57.560Z,83.27
2019-03-02T01:46:25.849Z,84.20
2019-03-02T01:48:54.110Z,84.90
2019-03-02T01:51:23.111Z,85.03
2019-03-02T01:53:52.213Z,86.87
2019-03-02T01:56:20.476Z,82.10
2019-03-02T01:58:48.733Z,88.37
2019-03-02T02:01:16.995Z,88.50
2019-03-02T02:03:47.053Z,84.20
2019-03-02T02:06:15.266Z,94.13
2019-03-02T02:08:43.526Z,83.47
2019-03-02T02:11:14.638Z,90.33
2019-03-02T02:13:42.827Z,86.70
2019-03-02T02:16:11.916Z,85.50
2019-03-02T02:18:40.171Z,90.17
2019-03-02T02:21:08.454Z,96.80
2019-03-02T02:23:38.770Z,88.00
2019-03-02T02:26:07.708Z,92.33
2019-03-02T02:28:36.704Z,100.60
2019-03-02T02:31:06.110Z,100.77
2019-03-02T02:33:42.618Z,95.27
2019-03-02T02:36:05.003Z,94.20
2019-03-02T02:38:33.254Z,85.73
2019-03-02T02:41:01.514Z,85.93
2019-03-02T02:43:29.776Z,87.40
2019-03-02T02:45:58.038Z,87.97
2019-03-02T02:48:31.204Z,86.77
2019-03-02T02:50:56.287Z,94.30
2019-03-02T02:53:24.553Z,88.33
2019-03-02T02:55:52.816Z,86.93
2019-03-02T02:58:21.074Z,84.53
2019-03-02T03:00:50.274Z,91.10
2019-03-02T03:03:20.933Z,93.33
2019-03-02T03:05:53.877Z,89.27
2019-03-02T03:08:19.286Z,93.10
2019-03-02T03:10:47.547Z,92.57
2019-03-02T03:13:18.478Z,91.00
2019-03-02T03:15:48.217Z,97.70
2019-03-02T03:18:16.481Z,88.10
2019-03-02T03:20:48.811Z,91.40
2019-03-02T03:23:14.746Z,91.63
2019-03-02T03:25:42.998Z,93.73
2019-03-02T03:28:11.264Z,93.57
2019-03-02T03:30:40.152Z,87.70
2019-03-02T03:33:08.630Z,90.83
2019-03-02T03:35:36.953Z,93.93
2019-03-02T03:38:05.257Z,96.90
2019-03-02T03:40:33.527Z,90.93
2019-03-02T03:43:03.358Z,86.63
2019-03-02T03:45:31.773Z,92.03
2019-03-02T03:48:00.041Z,95.63
2019-03-02T03:50:28.313Z,96.30
2019-03-02T03:52:56.578Z,95.67
2019-03-02T03:55:27.368Z,84.40
2019-03-02T03:58:00.622Z,86.23
2019-03-02T04:00:24.847Z,92.23
2019-03-02T04:02:53.113Z,88.70
2019-03-02T04:05:21.367Z,88.03
2019-03-02T04:07:51.428Z,87.13
2019-03-02T04:10:25.751Z,93.63
2019-03-02T04:12:49.643Z,86.00
2019-03-02T04:15:17.904Z,90.47
2019-03-02T04:17:46.187Z,88.70
2019-03-02T04:20:20.325Z,88.50
2019-03-02T04:22:49.843Z,93.70
2019-03-02T04:25:19.653Z,90.20
2019-03-02T04:27:53.302Z,86.70
2019-03-02T04:30:18.095Z,87.83
2019-03-02T04:32:46.364Z,88.27
2019-03-02T04:35:14.637Z,87.13
2019-03-02T04:37:42.893Z,84.50
2019-03-02T04:40:11.153Z,90.03
2019-03-02T04:42:39.438Z,87.83
2019-03-02T04:45:09.844Z,88.20
2019-03-02T04:47:38.097Z,89.80
2019-03-02T04:50:08.011Z,86.23
2019-03-02T04:52:36.281Z,81.97
2019-03-02T04:55:09.434Z,80.67
2019-03-02T04:57:37.405Z,79.57
2019-03-02T05:00:09.290Z,75.60
2019-03-02T05:02:37.550Z,74.67
2019-03-02T05:05:08.376Z,75.53
2019-03-02T05:07:35.991Z,72.40
2019-03-02T05:10:06.186Z,69.63
2019-03-02T05:12:34.442Z,70.17
2019-03-02T05:15:02.702Z,69.83
2019-03-02T05:17:30.967Z,72.03
2019-03-02T05:20:00.951Z,69.73
2019-03-02T05:22:29.234Z,73.43
2019-03-02T05:24:57.494Z,74.87
2019-03-02T05:27:28.791Z,71.60
2019-03-02T05:29:55.742Z,79.50
2019-03-02T05:32:24.021Z,74.17
2019-03-02T05:34:52.274Z,69.40
2019-03-02T05:37:20.550Z,71.73
2019-03-02T05:39:49.567Z,80.27
2019-03-02T05:42:18.802Z,72.27
2019-03-02T05:44:47.062Z,74.60
2019-03-02T05:47:15.324Z,59.67
2019-03-02T05:49:43.587Z,43.13
2019-03-02T05:52:14.462Z,38.07
2019-03-02T05:54:42.437Z,32.27
2019-03-02T05:57:10.770Z,35.17
2019-03-02T05:59:39.024Z,38.13
2019-03-02T06:02:07.366Z,34.27
2019-03-02T06:04:35.629Z,34.07
2019-03-02T06:07:03.928Z,36.33
2019-03-02T06:09:32.172Z,38.43
2019-03-02T06:12:00.430Z,42.00
2019-03-02T06:14:30.510Z,40.10
2019-03-02T06:16:58.680Z,35.03
2019-03-02T06:19:26.931Z,37.50
2019-03-02T06:21:55.208Z,38.23
2019-03-02T06:24:23.478Z,39.90
2019-03-02T06:26:51.728Z,38.10
2019-03-02T06:29:19.999Z,44.93
2019-03-02T06:31:50.687Z,39.07
2019-03-02T06:34:19.802Z,39.60
2019-03-02T06:36:48.309Z,34.47
2019-03-02T06:39:16.563Z,33.83
2019-03-02T06:41:44.829Z,34.53
2019-03-02T06:44:13.100Z,37.87
2019-03-02T06:46:41.351Z,32.80
2019-03-02T06:49:09.623Z,32.53
2019-03-02T06:51:37.875Z,33.60
2019-03-02T06:54:09.131Z,33.63
2019-03-02T06:56:39.312Z,33.93
2019-03-02T06:59:06.121Z,31.53
2019-03-02T07:01:34.395Z,30.87
2019-03-02T07:04:02.666Z,32.90
2019-03-02T07:06:30.924Z,31.10
2019-03-02T07:08:59.196Z,32.27
2019-03-02T07:11:29.924Z,48.27
2019-03-02T07:13:57.458Z,46.67
2019-03-02T07:16:25.754Z,38.87
2019-03-02T07:18:55.658Z,34.50
2019-03-02T07:21:23.923Z,30.97
2019-03-02T07:23:52.197Z,34.80
2019-03-02T07:26:20.968Z,37.13
2019-03-02T07:28:49.313Z,34.53
2019-03-02T07:31:17.568Z,32.43
2019-03-02T07:33:45.845Z,33.73
2019-03-02T07:36:14.109Z,30.20
2019-03-02T07:38:42.384Z,33.27
2019-03-02T07:41:10.653Z,33.07
2019-03-02T07:43:42.134Z,27.73
2019-03-02T07:46:11.830Z,26.27
2019-03-02T07:48:38.931Z,27.93
2019-03-02T07:51:07.197Z,27.03
2019-03-02T07:53:35.455Z,28.50
2019-03-02T07:56:03.749Z,28.13
2019-03-02T07:58:32.006Z,31.43
2019-03-02T08:01:00.270Z,27.90
2019-03-02T08:03:28.537Z,33.70
2019-03-02T08:05:56.800Z,33.13
2019-03-02T08:08:25.067Z,34.53
2019-03-02T08:10:53.328Z,37.17
2019-03-02T08:13:21.591Z,43.90
2019-03-02T08:15:49.861Z,46.90
2019-03-02T08:18:21.443Z,47.87
2019-03-02T08:20:48.105Z,50.60
2019-03-02T08:23:16.373Z,54.97
2019-03-02T08:25:44.632Z,54.83
2019-03-02T08:28:12.896Z,56.50
2019-03-02T08:30:41.184Z,54.27
2019-03-02T08:33:09.444Z,56.07
2019-03-02T08:35:37.709Z,52.43
2019-03-02T08:38:06.388Z,53.97
2019-03-02T08:40:34.733Z,55.53
2019-03-02T08:43:02.998Z,54.00
2019-03-02T08:45:31.891Z,53.80
2019-03-02T08:48:00.195Z,55.10
2019-03-02T08:50:28.478Z,53.03
2019-03-02T08:52:56.738Z,53.90
2019-03-02T08:55:25.012Z,52.70
2019-03-02T08:57:53.844Z,56.30
2019-03-02T09:00:24.410Z,55.20
2019-03-02T09:02:55.275Z,64.00
2019-03-02T09:05:23.567Z,62.13
2019-03-02T09:07:52.641Z,56.83
2019-03-02T09:10:21.825Z,64.77
2019-03-02T09:12:50.234Z,61.20
2019-03-02T09:15:22.264Z,58.50
2019-03-02T09:17:54.134Z,55.83
2019-03-02T09:20:20.631Z,57.90
2019-03-02T09:22:48.890Z,59.53
2019-03-02T09:25:20.138Z,55.80
2019-03-02T09:27:48.555Z,58.27
2019-03-02T09:30:23.508Z,59.23
2019-03-02T09:32:53.237Z,58.93
2019-03-02T09:35:21.526Z,56.23
2019-03-02T09:37:49.782Z,64.53
2019-03-02T09:40:19.384Z,59.47
2019-03-02T09:42:47.645Z,58.37
2019-03-02T09:45:17.052Z,53.50
2019-03-02T09:47:47.515Z,55.57
2019-03-02T09:50:16.843Z,55.97
2019-03-02T09:52:45.738Z,55.33
2019-03-02T09:55:18.387Z,56.23
2019-03-02T09:57:47.464Z,51.33
2019-03-02T10:00:25.600Z,48.97
2019-03-02T10:02:53.545Z,41.33
2019-03-02T10:05:21.814Z,46.57
2019-03-02T10:07:50.090Z,45.73
2019-03-02T10:10:18.691Z,42.63
2019-03-02T10:12:51.015Z,46.10
2019-03-02T10:15:19.474Z,54.60
2019-03-02T10:17:47.746Z,50.03
2019-03-02T10:20:15.998Z,55.67
2019-03-02T10:22:44.277Z,50.73
2019-03-02T10:25:13.982Z,50.67
2019-03-02T10:27:42.237Z,49.50
2019-03-02T10:30:16.180Z,47.23
2019-03-02T10:32:44.444Z,45.63
2019-03-02T10:35:16.986Z,48.20
2019-03-02T10:37:44.378Z,46.07
2019-03-02T10:40:15.332Z,48.40
2019-03-02T10:42:43.584Z,48.97
2019-03-02T10:45:13.993Z,44.13
2019-03-02T10:47:42.249Z,48.63
2019-03-02T10:50:13.355Z,43.93
2019-03-02T10:52:41.628Z,42.50
2019-03-02T10:55:13.568Z,49.00
2019-03-02T10:57:41.865Z,47.00
2019-03-02T11:00:29.251Z,46.50
2019-03-02T11:03:00.566Z,44.67
2019-03-02T11:05:42.470Z,44.73
2019-03-02T11:08:25.399Z,44.97
2019-03-02T11:11:05.420Z,46.43
2019-03-02T11:13:45.773Z,48.73
2019-03-02T11:16:27.775Z,47.43
2019-03-02T11:19:00.660Z,50.17
2019-03-02T11:21:42.520Z,48.57
2019-03-02T11:24:30.684Z,47.80
2019-03-02T11:27:13.963Z,45.33
2019-03-02T11:29:51.272Z,46.27
2019-03-02T11:32:21.511Z,44.27
2019-03-02T11:35:10.343Z,38.93
2019-03-02T11:37:58.001Z,44.87
2019-03-02T11:40:29.594Z,47.30
2019-03-02T11:42:58.004Z,57.57
2019-03-02T11:45:43.784Z,48.93
2019-03-02T11:48:17.180Z,45.93
2019-03-02T11:50:51.017Z,46.80
2019-03-02T11:53:24.137Z,47.97
2019-03-02T11:56:10.556Z,44.40
2019-03-02T11:58:49.651Z,48.27
2019-03-02T12:01:35.713Z,44.20
2019-03-02T12:04:14.985Z,41.20
2019-03-02T12:06:49.478Z,40.93
2019-03-02T12:09:31.677Z,44.03
2019-03-02T12:12:19.939Z,44.87
2019-03-02T12:14:58.371Z,43.33
2019-03-02T12:17:37.887Z,46.30
2019-03-02T12:20:14.275Z,46.07
2019-03-02T12:22:46.917Z,46.33
2019-03-02T12:25:35.074Z,40.17
2019-03-02T12:28:16.599Z,41.67
2019-03-02T12:30:52.204Z,41.23
2019-03-02T12:33:38.453Z,41.60
2019-03-02T12:36:08.352Z,39.17
2019-03-02T12:38:44.624Z,42.47
2019-03-02T12:41:30.713Z,41.20
2019-03-02T12:44:00.620Z,41.07
2019-03-02T12:46:42.825Z,39.57
2019-03-02T12:49:24.768Z,43.60
2019-03-02T12:52:12.249Z,38.33
2019-03-02T12:54:43.367Z,40.10
2019-03-02T12:57:13.908Z,36.10
2019-03-02T12:59:46.521Z,39.00
2019-03-02T13:02:22.173Z,40.17
2019-03-02T13:04:54.828Z,37.83
2019-03-02T13:07:27.515Z,38.37
2019-03-02T13:09:57.419Z,35.73
2019-03-02T13:12:45.870Z,38.10
2019-03-02T13:15:21.523Z,38.93
2019-03-02T13:17:53.902Z,38.03
2019-03-02T13:20:23.814Z,39.77
2019-03-02T13:22:53.726Z,39.03
2019-03-02T13:25:29.914Z,39.93
2019-03-02T13:28:01.041Z,35.60
2019-03-02T13:30:32.295Z,35.53
2019-03-02T13:33:07.936Z,36.03
2019-03-02T13:35:37.838Z,39.30
2019-03-02T13:38:24.346Z,38.53
2019-03-02T13:40:54.248Z,41.13
2019-03-02T13:43:32.947Z,40.10
2019-03-02T13:46:02.855Z,41.47
2019-03-02T13:48:35.892Z,38.93
2019-03-02T13:51:08.524Z,38.30
2019-03-02T13:53:59.295Z,36.60
2019-03-02T13:56:44.253Z,38.00
2019-03-02T13:59:17.231Z,41.07
2019-03-02T14:01:47.139Z,34.73
2019-03-02T14:04:33.259Z,35.80
2019-03-02T14:07:18.410Z,38.03
2019-03-02T14:09:51.004Z,41.83
2019-03-02T14:12:20.935Z,41.00
2019-03-02T14:14:50.863Z,35.53
2019-03-02T14:17:32.836Z,40.30
2019-03-02T14:20:24.681Z,46.83
2019-03-02T14:22:53.951Z,45.07
2019-03-02T14:25:26.846Z,41.50
2019-03-02T14:27:57.704Z,43.20
2019-03-02T14:30:31.245Z,38.13
2019-03-02T14:33:01.143Z,39.77
2019-03-02T14:35:46.113Z,42.83
2019-03-02T14:38:23.937Z,43.40
2019-03-02T14:40:59.458Z,43.67
2019-03-02T14:43:44.722Z,36.63
2019-03-02T14:46:30.625Z,37.73
2019-03-02T14:49:20.446Z,39.93
2019-03-02T14:51:56.713Z,39.63
2019-03-02T14:54:30.891Z,39.73
2019-03-02T14:57:00.826Z,47.03
2019-03-02T14:59:39.881Z,40.87
2019-03-02T15:02:21.579Z,43.50
2019-03-02T15:04:54.009Z,44.27
2019-03-02T15:07:23.943Z,43.13
2019-03-02T15:10:08.657Z,40.07
2019-03-02T15:12:44.555Z,41.67
2019-03-02T15:15:21.115Z,35.20
2019-03-02T15:17:51.004Z,39.80
2019-03-02T15:20:39.237Z,39.43
2019-03-02T15:23:12.114Z,38.53
2019-03-02T15:25:44.540Z,38.63
2019-03-02T15:28:14.429Z,38.07
2019-03-02T15:30:59.166Z,38.10
2019-03-02T15:33:44.408Z,43.23
2019-03-02T15:36:14.307Z,40.90
2019-03-02T15:39:00.396Z,45.57
2019-03-02T15:41:33.310Z,36.20
2019-03-02T15:44:12.027Z,42.60
2019-03-02T15:46:47.964Z,42.23
2019-03-02T15:49:17.871Z,32.83
2019-03-02T15:51:49.458Z,37.93
2019-03-02T15:54:19.559Z,36.93
2019-03-02T15:57:02.654Z,41.70
2019-03-02T15:59:41.758Z,40.00
2019-03-02T16:02:11.735Z,39.80
2019-03-02T16:04:41.650Z,39.73
2019-03-02T16:07:14.511Z,37.80
2019-03-02T16:10:00.890Z,39.33
2019-03-02T16:12:31.931Z,40.87
2019-03-02T16:15:18.302Z,35.33
2019-03-02T16:18:03.592Z,36.83
2019-03-02T16:20:33.501Z,37.20
2019-03-02T16:23:06.001Z,39.43
2019-03-02T16:25:40.017Z,37.27
2019-03-02T16:28:15.435Z,37.60
2019-03-02T16:31:04.137Z,35.90
2019-03-02T16:33:36.047Z,36.17
2019-03-02T16:36:11.642Z,33.43
2019-03-02T16:38:44.218Z,32.10
2019-03-02T16:41:31.096Z,31.60
2019-03-02T16:44:09.902Z,34.90
2019-03-02T16:46:39.801Z,31.83
2019-03-02T16:49:25.727Z,30.60
2019-03-02T16:52:13.994Z,32.93
2019-03-02T16:54:46.466Z,32.90
2019-03-02T16:57:30.147Z,32.87
2019-03-02T17:00:08.923Z,38.17
2019-03-02T17:02:49.758Z,38.27
2019-03-02T17:05:22.091Z,39.60
2019-03-02T17:07:58.757Z,36.87
2019-03-02T17:10:29.398Z,33.80
2019-03-02T17:13:02.006Z,36.90
2019-03-02T17:15:31.900Z,34.33
2019-03-02T17:18:01.832Z,34.70
2019-03-02T17:20:34.508Z,32.93
2019-03-02T17:23:23.345Z,31.87
2019-03-02T17:25:47.732Z,33.60
2019-03-02T17:28:26.376Z,44.17
2019-03-02T17:31:02.250Z,46.57
2019-03-02T17:33:42.115Z,40.33
2019-03-02T17:36:12.022Z,41.40
2019-03-02T17:38:48.017Z,44.43
2019-03-02T17:41:18.685Z,47.37
2019-03-02T17:44:03.524Z,43.80
2019-03-02T17:46:33.460Z,42.33
2019-03-02T17:49:09.239Z,39.70
2019-03-02T17:51:48.128Z,45.80
2019-03-02T17:54:30.025Z,48.73
2019-03-02T17:57:05.944Z,46.50
2019-03-02T17:59:35.853Z,44.13
2019-03-02T18:02:23.931Z,41.27
2019-03-02T18:04:56.301Z,39.17
2019-03-02T18:07:26.227Z,34.13
2019-03-02T18:10:05.078Z,33.47
2019-03-02T18:12:43.952Z,39.43
2019-03-02T18:15:26.021Z,37.83
2019-03-02T18:17:55.507Z,36.47
2019-03-02T18:20:24.089Z,37.60
2019-03-02T18:22:52.361Z,35.07
2019-03-02T18:25:20.641Z,37.70
2019-03-02T18:27:48.910Z,46.13
2019-03-02T18:30:19.360Z,33.77
2019-03-02T18:32:49.398Z,28.90
2019-03-02T18:35:17.660Z,34.67
2019-03-02T18:37:45.936Z,32.20
2019-03-02T18:40:14.937Z,33.57
2019-03-02T18:42:43.206Z,35.50
2019-03-02T18:45:12.869Z,37.20
2019-03-02T18:47:41.132Z,35.33
2019-03-02T18:50:13.872Z,30.83
2019-03-02T18:52:53.808Z,33.03
2019-03-02T18:55:25.763Z,34.87
2019-03-02T18:57:52.513Z,37.50
2019-03-02T19:00:23.059Z,36.27
2019-03-02T19:02:51.375Z,35.03
2019-03-02T19:05:21.269Z,40.67
2019-03-02T19:07:49.538Z,40.83
2019-03-02T19:10:17.793Z,43.37
2019-03-02T19:12:46.061Z,38.60
2019-03-02T19:15:15.094Z,39.27
2019-03-02T19:17:47.181Z,45.47
2019-03-02T19:20:16.382Z,38.30
2019-03-02T19:22:44.724Z,37.07
2019-03-02T19:25:13.412Z,38.73
2019-03-02T19:27:41.708Z,38.87
2019-03-02T19:30:15.813Z,40.67
2019-03-02T19:32:44.071Z,42.67
2019-03-02T19:35:12.714Z,41.30
2019-03-02T19:37:41.813Z,41.37
2019-03-02T19:40:18.577Z,42.90
2019-03-02T19:42:46.833Z,40.40
2019-03-02T19:45:15.104Z,41.80
2019-03-02T19:47:43.368Z,38.70
2019-03-02T19:50:14.439Z,39.47
2019-03-02T19:52:42.706Z,35.60
2019-03-02T19:55:13.239Z,39.03
2019-03-02T19:57:41.493Z,37.83
2019-03-02T20:00:15.869Z,38.37
2019-03-02T20:02:44.511Z,36.40
2019-03-02T20:05:12.756Z,36.67
2019-03-02T20:07:41.025Z,39.97
2019-03-02T20:10:11.623Z,36.60
2019-03-02T20:12:39.909Z,39.03
2019-03-02T20:15:13.651Z,38.57
2019-03-02T20:17:41.910Z,43.47
2019-03-02T20:20:12.619Z,42.60
2019-03-02T20:22:40.877Z,47.77
2019-03-02T20:25:14.652Z,44.10
2019-03-02T20:27:43.249Z,43.27
2019-03-02T20:30:19.423Z,39.57
2019-03-02T20:32:47.819Z,38.97
2019-03-02T20:35:30.315Z,45.17
2019-03-02T20:37:58.571Z,42.87
2019-03-02T20:40:28.439Z,45.17
2019-03-02T20:42:56.704Z,40.47
2019-03-02T20:45:24.951Z,43.67
2019-03-02T20:47:53.220Z,41.03
2019-03-02T20:50:25.204Z,40.17
2019-03-02T20:52:53.461Z,41.43
2019-03-02T20:55:21.737Z,40.03
2019-03-02T20:57:50.465Z,39.67
2019-03-02T21:00:27.526Z,35.97
2019-03-02T21:02:57.133Z,34.83
2019-03-02T21:05:27.196Z,37.80
2019-03-02T21:07:55.462Z,35.87
2019-03-02T21:10:31.466Z,32.07
2019-03-02T21:12:59.756Z,35.23
2019-03-02T21:15:39.624Z,35.43
2019-03-02T21:18:07.967Z,31.50
2019-03-02T21:20:36.661Z,34.37
2019-03-02T21:23:05.049Z,32.83
2019-03-02T21:25:33.339Z,33.10
2019-03-02T21:28:02.061Z,33.87
2019-03-02T21:30:30.324Z,33.07
2019-03-02T21:32:58.590Z,29.40
2019-03-02T21:35:26.896Z,33.23
2019-03-02T21:37:55.184Z,30.20
2019-03-02T21:40:29.434Z,31.97
2019-03-02T21:42:57.716Z,30.40
2019-03-02T21:45:30.231Z,30.70
2019-03-02T21:47:58.508Z,31.37
2019-03-02T21:50:34.553Z,27.20
2019-03-02T21:53:02.823Z,31.03
2019-03-02T21:55:31.080Z,30.27
2019-03-02T21:57:59.344Z,28.70
2019-03-02T22:00:30.684Z,27.40
2019-03-02T22:02:58.941Z,28.20
2019-03-02T22:05:27.213Z,31.17
2019-03-02T22:07:55.468Z,24.73
2019-03-02T22:10:35.649Z,27.40
2019-03-02T22:13:03.941Z,22.97
2019-03-02T22:15:32.192Z,24.67
2019-03-02T22:18:00.464Z,31.67
2019-03-02T22:20:28.722Z,26.43
2019-03-02T22:22:57.051Z,25.10
2019-03-02T22:25:25.581Z,28.93
2019-03-02T22:27:53.842Z,23.73
2019-03-02T22:30:24.602Z,25.27
2019-03-02T22:32:52.863Z,23.73
2019-03-02T22:35:21.158Z,24.50
2019-03-02T22:37:49.422Z,26.20
2019-03-02T22:40:19.332Z,22.93
2019-03-02T22:42:47.593Z,20.80
2019-03-02T22:45:16.897Z,23.47
2019-03-02T22:47:45.165Z,22.03
2019-03-02T22:50:16.679Z,23.60
2019-03-02T22:52:44.967Z,23.23
2019-03-02T22:55:14.679Z,23.43
2019-03-02T22:57:42.941Z,24.70
2019-03-02T23:00:17.484Z,23.20
2019-03-02T23:02:44.798Z,24.00
2019-03-02T23:05:13.090Z,20.40
2019-03-02T23:07:41.349Z,23.07
2019-03-02T23:10:10.449Z,20.47
2019-03-02T23:12:38.716Z,20.00
2019-03-02T23:15:15.331Z,22.13
2019-03-02T23:17:43.618Z,24.93
2019-03-02T23:20:11.878Z,18.53
2019-03-02T23:22:40.167Z,20.73
2019-03-02T23:25:16.053Z,23.60
2019-03-02T23:27:44.337Z,21.13
2019-03-02T23:30:25.880Z,22.23
2019-03-02T23:32:54.170Z,21.30
2019-03-02T23:35:22.804Z,19.27
2019-03-02T23:37:51.060Z,21.03
2019-03-02T23:40:21.032Z,20.33
2019-03-02T23:42:49.291Z,20.30
2019-03-02T23:45:18.492Z,22.27
2019-03-02T23:47:46.751Z,22.77
2019-03-02T23:50:15.189Z,24.60
2019-03-02T23:52:43.551Z,22.50
2019-03-02T23:55:13.068Z,22.70
2019-03-02T23:57:41.330Z,20.73
